2W6

St Mary's County Regional Airport

Leonardtown, Maryland, USA
METAR K2W6 232217Z AUTO 12008G14KT 10SM SCT050 15/M02 A3041 RMK AO1
Observed Flight Rules
Apr-23 @ 22:17 UTC (27 minutes ago) Visual Flight Rules
Wind Visibility Clouds
120° at 8 knots
 Gusting to 14 knots
10 miles
  • Scattered at 5,000' AGL
Temperatures Readings
Current 15°C / 59°F
Dewpoint -2°C / 28°F
Humidity 31%
Altimeter 30.41" Hg
Pressure 1030 hPa
Elevation 44
METAR K2W6 232217Z AUTO 12008G14KT 10SM SCT050 15/M02 A3041 RMK AO1
Observed Flight Rules
Apr-23 @ 22:17 UTC
(27 minutes ago)
VFR
Wind Visibility
120° at 8 knots
 Gusting to 14 knots
10 miles
Clouds
  • Scattered at 5,000' AGL
Temperature Dewpoint
15°C / 59°F -2°C / 28°F
Humidity Altimeter Pressure
31% 30.41" Hg 1030 hPa